Time;durP1;ratioP1;P1;durP2;ratioP2;P2;SDS_P1;SDS_P2;PMS_P1;PMS_P2;Temp;Humidity;BMP_temperature;BMP_pressure;BME280_temperature;BME280_humidity;BME280_pressure;Samples;Min_cycle;Max_cycle;Signal;HPM_P1;HPM_P2
2021/07/15 00:01:51;;;;;;;5.80;4.97;;;13.90;99.90;;;;;;4993759;28;20070;-89
2021/07/15 00:04:18;;;;;;;7.70;5.65;;;13.80;99.90;;;;;;4993074;28;20054;-88
2021/07/15 00:06:45;;;;;;;5.45;4.95;;;13.80;99.90;;;;;;4993142;28;20399;-89
2021/07/15 00:09:14;;;;;;;7.30;5.10;;;13.90;99.90;;;;;;4993177;28;20058;-89
2021/07/15 00:11:44;;;;;;;6.20;4.75;;;13.90;99.90;;;;;;4992855;28;20129;-88
2021/07/15 00:14:11;;;;;;;4.88;4.47;;;14.00;99.90;;;;;;4992577;28;20054;-89
2021/07/15 00:16:38;;;;;;;5.47;4.47;;;14.00;99.90;;;;;;4992927;28;20073;-88
2021/07/15 00:19:07;;;;;;;8.05;5.07;;;13.90;99.90;;;;;;4995999;28;20050;-89
2021/07/15 00:21:34;;;;;;;5.53;4.32;;;14.00;99.90;;;;;;4996368;28;20133;-88
2021/07/15 00:24:01;;;;;;;7.65;5.35;;;14.00;99.90;;;;;;4996531;28;20050;-88
2021/07/15 00:26:27;;;;;;;4.82;4.43;;;14.00;99.90;;;;;;4996223;28;20491;-89
2021/07/15 00:28:54;;;;;;;6.65;4.15;;;14.00;99.90;;;;;;4996382;28;20479;-88
2021/07/15 00:31:21;;;;;;;6.32;4.13;;;13.90;99.90;;;;;;4996243;28;20076;-87
2021/07/15 00:33:48;;;;;;;4.72;4.30;;;13.90;99.90;;;;;;4995986;28;20054;-89
2021/07/15 00:36:14;;;;;;;4.38;4.00;;;14.00;99.90;;;;;;4996055;28;20046;-89
2021/07/15 00:38:41;;;;;;;4.68;4.30;;;14.00;99.90;;;;;;4996123;28;20402;-88
2021/07/15 00:41:08;;;;;;;8.73;4.32;;;13.90;99.90;;;;;;4996044;28;20046;-88
2021/07/15 00:43:35;;;;;;;4.65;4.25;;;13.90;99.90;;;;;;4996050;28;20081;-88
2021/07/15 00:46:02;;;;;;;6.63;4.68;;;14.00;99.90;;;;;;4995834;28;20101;-88
2021/07/15 00:48:28;;;;;;;4.85;4.38;;;14.10;99.90;;;;;;4996004;28;20074;-88
2021/07/15 00:50:55;;;;;;;6.65;5.03;;;14.00;99.90;;;;;;4995967;28;20051;-88
2021/07/15 00:53:22;;;;;;;5.03;4.53;;;14.00;99.90;;;;;;4995708;28;20050;-88
2021/07/15 00:55:49;;;;;;;4.80;4.40;;;14.00;99.90;;;;;;4995819;28;20054;-88
2021/07/15 00:58:17;;;;;;;8.52;4.40;;;14.10;99.90;;;;;;4995723;28;20113;-88
2021/07/15 01:00:49;;;;;;;5.38;4.38;;;14.10;99.90;;;;;;4995860;28;20133;-88
2021/07/15 01:03:20;;;;;;;4.95;4.47;;;14.00;99.90;;;;;;4995779;28;20053;-88
2021/07/15 01:05:50;;;;;;;4.57;4.22;;;14.10;99.90;;;;;;4995663;28;20050;-88
2021/07/15 01:08:17;;;;;;;7.30;4.22;;;14.10;99.90;;;;;;4995692;28;20454;-88
2021/07/15 01:10:53;;;;;;;5.88;4.80;;;14.10;99.90;;;;;;4995584;28;20054;-88
2021/07/15 01:13:41;;;;;;;6.35;5.55;;;14.00;99.90;;;;;;4995148;28;20054;-88
2021/07/15 01:16:23;;;;;;;8.77;4.97;;;13.90;99.90;;;;;;4995700;28;20054;-88
2021/07/15 01:19:12;;;;;;;8.75;5.72;;;13.90;99.90;;;;;;4995509;28;20054;-88
2021/07/15 01:22:14;;;;;;;7.20;6.20;;;14.00;99.90;;;;;;4995368;28;20053;-89
2021/07/15 01:25:00;;;;;;;6.88;6.10;;;14.00;99.90;;;;;;4995279;28;20080;-88
2021/07/15 01:27:54;;;;;;;7.13;5.85;;;14.00;99.90;;;;;;4995287;28;20148;-88
2021/07/15 01:30:23;;;;;;;;;;;14.00;99.90;;;;;;4994583;28;20056;-89
2021/07/15 01:33:04;;;;;;;10.90;5.97;;;14.00;99.90;;;;;;4995001;28;20366;-89
2021/07/15 01:35:51;;;;;;;5.70;5.30;;;14.00;99.90;;;;;;4994888;28;20053;-88
2021/07/15 01:38:21;;;;;;;10.93;5.60;;;14.10;99.90;;;;;;4995140;28;20054;-89
2021/07/15 01:41:03;;;;;;;5.40;5.00;;;14.10;99.90;;;;;;4995047;28;20134;-90
2021/07/15 01:43:44;;;;;;;5.38;4.95;;;14.10;99.90;;;;;;4994784;28;20054;-91
2021/07/15 01:46:13;;;;;;;5.30;4.80;;;14.20;99.90;;;;;;4995032;28;20136;-91
2021/07/15 01:48:41;;;;;;;5.47;4.30;;;14.10;99.90;;;;;;4994732;28;20046;-90
2021/07/15 01:51:09;;;;;;;6.95;4.72;;;14.20;99.90;;;;;;4995107;28;20057;-90
2021/07/15 01:53:37;;;;;;;8.35;5.25;;;14.10;99.90;;;;;;4994718;28;20060;-91
2021/07/15 01:56:07;;;;;;;6.55;4.82;;;14.00;99.90;;;;;;4994722;28;20502;-91
2021/07/15 01:58:36;;;;;;;5.03;4.63;;;14.00;99.90;;;;;;4994730;28;20141;-90
2021/07/15 02:01:06;;;;;;;4.95;4.57;;;14.00;99.90;;;;;;4994634;28;20137;-91
2021/07/15 02:03:37;;;;;;;10.20;4.80;;;14.00;99.90;;;;;;4994641;28;20120;-90
2021/07/15 02:06:06;;;;;;;6.97;4.10;;;14.00;99.90;;;;;;4994434;28;20054;-90
2021/07/15 02:08:34;;;;;;;9.45;4.95;;;14.00;99.90;;;;;;4994536;28;20081;-90
2021/07/15 02:11:02;;;;;;;7.25;4.57;;;13.90;99.90;;;;;;4994523;28;20139;-90
2021/07/15 02:13:29;;;;;;;6.03;4.55;;;13.80;99.90;;;;;;4994204;28;20133;-90
2021/07/15 02:15:57;;;;;;;5.45;5.03;;;13.80;99.90;;;;;;4994384;28;20141;-90
2021/07/15 02:18:26;;;;;;;5.07;4.68;;;13.80;99.90;;;;;;4994259;28;20060;-90
2021/07/15 02:20:55;;;;;;;5.40;4.90;;;13.70;99.90;;;;;;4994347;28;20471;-90
2021/07/15 02:23:23;;;;;;;5.18;4.68;;;13.80;99.90;;;;;;4994235;28;20060;-89
2021/07/15 02:25:52;;;;;;;7.13;5.57;;;13.80;99.90;;;;;;4993893;28;20575;-89
2021/07/15 02:28:21;;;;;;;10.07;5.75;;;13.80;99.90;;;;;;4994435;28;20491;-90
2021/07/15 02:30:56;;;;;;;6.88;6.18;;;13.80;99.90;;;;;;4994612;28;20081;-90
2021/07/15 02:33:26;;;;;;;6.00;5.40;;;13.80;99.90;;;;;;4994074;28;20050;-90
2021/07/15 02:35:58;;;;;;;6.78;5.68;;;13.80;99.90;;;;;;4993899;28;20050;-90
2021/07/15 02:38:26;;;;;;;6.18;5.68;;;13.80;99.90;;;;;;4993963;28;20447;-91
2021/07/15 02:40:53;;;;;;;5.93;5.20;;;13.90;99.90;;;;;;4993655;28;20068;-90
2021/07/15 02:43:20;;;;;;;7.40;5.28;;;13.90;99.90;;;;;;4994102;28;20478;-90
2021/07/15 02:45:47;;;;;;;5.45;4.80;;;13.90;99.90;;;;;;4997016;28;20062;-90
2021/07/15 02:48:17;;;;;;;5.55;4.53;;;13.80;99.90;;;;;;5001717;28;20057;-91
2021/07/15 02:50:44;;;;;;;6.38;4.90;;;13.80;99.90;;;;;;4997634;28;20137;-90
2021/07/15 02:53:12;;;;;;;8.23;5.22;;;13.80;99.90;;;;;;4993725;28;20050;-90
2021/07/15 02:55:45;;;;;;;5.78;5.15;;;13.80;99.90;;;;;;4993560;28;20128;-90
2021/07/15 02:58:16;;;;;;;6.07;4.97;;;13.70;99.90;;;;;;4993981;28;20414;-90
2021/07/15 03:00:50;;;;;;;7.13;5.05;;;13.80;99.90;;;;;;4993780;28;20472;-90
2021/07/15 03:03:25;;;;;;;11.10;5.25;;;13.80;99.90;;;;;;4993808;28;20077;-90
2021/07/15 03:06:14;;;;;;;6.07;5.57;;;13.90;99.90;;;;;;4993720;28;20054;-90
2021/07/15 03:08:53;;;;;;;6.63;5.75;;;13.80;99.90;;;;;;4993764;28;20076;-90
2021/07/15 03:11:22;;;;;;;7.88;5.70;;;13.80;99.90;;;;;;4993767;28;20068;-90
2021/07/15 03:13:50;;;;;;;6.22;5.68;;;13.80;99.90;;;;;;4993455;28;20060;-90
2021/07/15 03:16:22;;;;;;;6.90;5.65;;;13.70;99.90;;;;;;4993830;28;20073;-91
2021/07/15 03:18:49;;;;;;;6.45;5.80;;;13.70;99.90;;;;;;4993741;28;20051;-90
2021/07/15 03:21:20;;;;;;;9.43;5.90;;;13.80;99.90;;;;;;4993657;28;20057;-89
2021/07/15 03:23:48;;;;;;;5.82;5.40;;;13.80;99.90;;;;;;4993803;28;20501;-90
2021/07/15 03:26:16;;;;;;;7.70;5.80;;;13.80;99.90;;;;;;4993607;28;20054;-90
2021/07/15 03:28:45;;;;;;;5.10;4.70;;;13.80;99.90;;;;;;4993692;28;20060;-89
2021/07/15 03:31:12;;;;;;;6.13;5.47;;;13.80;99.90;;;;;;4993860;28;20510;-89
2021/07/15 03:33:40;;;;;;;7.40;5.07;;;13.80;99.90;;;;;;4993353;28;20488;-90
2021/07/15 03:36:09;;;;;;;6.30;5.80;;;13.80;99.90;;;;;;4993671;28;20053;-91
2021/07/15 03:38:40;;;;;;;6.30;5.70;;;13.80;99.90;;;;;;4993887;28;20054;-90
2021/07/15 03:41:09;;;;;;;9.50;6.20;;;13.80;99.90;;;;;;4993751;28;20487;-90
2021/07/15 03:43:36;;;;;;;6.25;5.47;;;13.90;99.90;;;;;;4993423;28;20046;-90
2021/07/15 03:46:05;;;;;;;6.60;6.00;;;13.90;99.90;;;;;;4993285;28;20058;-90
2021/07/15 03:48:33;;;;;;;12.15;5.53;;;13.80;99.90;;;;;;4993447;28;20073;-90
2021/07/15 03:51:10;;;;;;;5.50;5.07;;;13.90;99.90;;;;;;4993510;28;20050;-89
2021/07/15 03:53:38;;;;;;;9.48;6.53;;;13.90;99.90;;;;;;4995547;28;20422;-89
2021/07/15 03:56:09;;;;;;;7.65;6.00;;;13.90;99.90;;;;;;4997692;28;20046;-90
2021/07/15 03:58:42;;;;;;;7.70;6.13;;;13.90;99.90;;;;;;4999554;28;20064;-89
2021/07/15 04:01:11;;;;;;;6.87;4.83;;;13.90;99.90;;;;;;4998145;28;20077;-90
2021/07/15 04:03:40;;;;;;;4.63;4.30;;;14.00;99.90;;;;;;4996748;28;20053;-90
2021/07/15 04:06:09;;;;;;;5.10;4.60;;;14.00;99.90;;;;;;4996815;28;20054;-91
2021/07/15 04:08:41;;;;;;;7.70;4.65;;;14.10;99.90;;;;;;4996714;28;20054;-89
2021/07/15 04:11:08;;;;;;;5.25;4.65;;;14.10;99.90;;;;;;4996745;28;20057;-90
2021/07/15 04:13:37;;;;;;;5.97;4.22;;;14.10;99.90;;;;;;4995997;28;20069;-89
2021/07/15 04:16:09;;;;;;;5.97;4.07;;;14.20;99.90;;;;;;4996623;28;20061;-90
2021/07/15 04:18:38;;;;;;;5.80;4.50;;;14.30;99.90;;;;;;4996876;28;20134;-89
2021/07/15 04:21:07;;;;;;;8.95;4.00;;;14.40;99.90;;;;;;4996379;28;20303;-89
2021/07/15 04:23:35;;;;;;;3.53;3.25;;;14.50;99.90;;;;;;4996398;28;20061;-89
2021/07/15 04:26:03;;;;;;;3.88;3.17;;;14.60;99.90;;;;;;4996395;28;20066;-90
2021/07/15 04:28:30;;;;;;;3.95;3.40;;;14.70;99.90;;;;;;4996285;28;20056;-90
2021/07/15 04:31:33;;;;;;;3.38;3.08;;;14.80;99.90;;;;;;4996372;28;20137;-91
2021/07/15 04:34:01;;;;;;;4.82;3.00;;;14.90;99.90;;;;;;4996185;28;20507;-90
2021/07/15 04:36:30;;;;;;;3.28;2.97;;;15.10;99.90;;;;;;4996135;28;20150;-90
2021/07/15 04:38:58;;;;;;;5.80;3.00;;;15.20;99.90;;;;;;4996383;28;20058;-89
2021/07/15 04:41:26;;;;;;;2.47;2.20;;;15.20;99.90;;;;;;4996170;28;20054;-90
2021/07/15 04:43:55;;;;;;;2.40;2.30;;;15.40;99.90;;;;;;4995364;28;20054;-89
2021/07/15 04:46:22;;;;;;;2.45;2.30;;;15.50;99.90;;;;;;4996039;28;20050;-89
2021/07/15 04:48:49;;;;;;;2.35;2.25;;;15.60;99.90;;;;;;4994210;28;20042;-90
2021/07/15 04:51:17;;;;;;;5.72;2.45;;;15.80;99.90;;;;;;4995563;28;20054;-89
2021/07/15 04:53:48;;;;;;;2.40;2.20;;;15.90;99.90;;;;;;4995743;28;20146;-90
2021/07/15 04:56:16;;;;;;;2.55;2.17;;;16.00;99.90;;;;;;4995682;28;20136;-89
2021/07/15 04:58:44;;;;;;;4.28;3.10;;;16.20;99.90;;;;;;4995749;28;20426;-89
2021/07/15 05:01:12;;;;;;;6.50;3.00;;;16.40;99.90;;;;;;4994935;28;20047;-89
2021/07/15 05:03:40;;;;;;;7.50;2.70;;;16.40;99.90;;;;;;4994833;28;20046;-89
2021/07/15 05:06:08;;;;;;;4.03;3.15;;;16.40;99.90;;;;;;4995049;28;20260;-89
2021/07/15 05:08:38;;;;;;;6.80;2.83;;;16.50;99.90;;;;;;4995495;28;20081;-88
2021/07/15 05:11:07;;;;;;;4.93;2.17;;;16.50;99.90;;;;;;4996225;28;20100;-89
2021/07/15 05:13:36;;;;;;;6.47;2.60;;;16.60;99.90;;;;;;4994308;28;20068;-89
2021/07/15 05:16:03;;;;;;;3.05;2.78;;;16.50;99.90;;;;;;4994568;28;20050;-89
2021/07/15 05:18:30;;;;;;;4.03;2.85;;;16.50;99.90;;;;;;4994790;28;20051;-89
2021/07/15 05:20:57;;;;;;;9.23;3.33;;;16.50;99.90;;;;;;4995125;28;20388;-88
2021/07/15 05:23:24;;;;;;;7.43;3.35;;;16.40;99.90;;;;;;4994676;28;20046;-89
2021/07/15 05:25:52;;;;;;;9.00;3.53;;;16.30;99.90;;;;;;4994852;28;20058;-89
2021/07/15 05:28:20;;;;;;;7.80;3.08;;;16.30;99.90;;;;;;4994978;28;20520;-89
2021/07/15 05:30:51;;;;;;;8.30;2.85;;;16.40;99.90;;;;;;4994691;28;20201;-89
2021/07/15 05:33:18;;;;;;;8.82;2.95;;;16.40;99.90;;;;;;4995826;28;20517;-89
2021/07/15 05:35:45;;;;;;;6.80;2.88;;;16.40;99.90;;;;;;4994151;28;20046;-88
2021/07/15 05:38:12;;;;;;;10.70;2.97;;;16.50;99.90;;;;;;4994691;28;20058;-89
2021/07/15 05:40:38;;;;;;;5.15;2.65;;;16.60;99.90;;;;;;4994455;28;20072;-89
2021/07/15 05:43:05;;;;;;;4.65;2.60;;;16.80;99.90;;;;;;4994332;28;20046;-88
2021/07/15 05:45:32;;;;;;;7.53;2.58;;;17.00;99.90;;;;;;4994414;28;20050;-88
2021/07/15 05:47:59;;;;;;;10.70;3.03;;;17.10;99.90;;;;;;4994390;28;20054;-89
2021/07/15 05:50:26;;;;;;;6.03;3.08;;;17.10;99.90;;;;;;4994230;28;20144;-88
2021/07/15 05:52:52;;;;;;;8.35;3.25;;;17.30;99.90;;;;;;4994090;28;20150;-89
2021/07/15 05:55:19;;;;;;;4.80;2.72;;;17.50;99.90;;;;;;4993961;28;20050;-89
2021/07/15 05:57:46;;;;;;;6.70;2.88;;;17.50;99.90;;;;;;4994148;28;20049;-88
2021/07/15 06:00:14;;;;;;;5.60;2.67;;;17.50;99.90;;;;;;4994429;28;20141;-90
2021/07/15 06:02:40;;;;;;;6.35;2.72;;;17.40;99.90;;;;;;4994685;28;20146;-89
2021/07/15 06:05:24;;;;;;;5.32;2.78;;;17.30;99.90;;;;;;4993932;28;20082;-88
2021/07/15 06:07:54;;;;;;;9.90;3.10;;;17.20;99.90;;;;;;4994458;28;20411;-89
2021/07/15 06:10:21;;;;;;;5.03;3.00;;;17.20;99.90;;;;;;4993457;28;20054;-89
2021/07/15 06:12:48;;;;;;;5.05;3.10;;;17.20;99.90;;;;;;4993149;28;20141;-89
2021/07/15 06:15:15;;;;;;;8.02;3.50;;;17.10;99.90;;;;;;4993492;28;20418;-89
2021/07/15 06:17:42;;;;;;;8.82;2.97;;;17.00;99.90;;;;;;4995031;28;20077;-89
2021/07/15 06:20:13;;;;;;;6.53;2.53;;;16.90;99.90;;;;;;4995109;28;20066;-89
2021/07/15 06:22:41;;;;;;;6.13;2.90;;;17.00;99.90;;;;;;4994322;28;20570;-88
2021/07/15 06:25:09;;;;;;;5.30;2.35;;;17.20;99.90;;;;;;4994279;28;20062;-89
2021/07/15 06:27:37;;;;;;;4.05;2.50;;;17.30;99.90;;;;;;4993665;28;20423;-89
2021/07/15 06:30:06;;;;;;;3.13;2.53;;;17.40;99.90;;;;;;4993918;28;20513;-89
2021/07/15 06:32:33;;;;;;;9.02;4.70;;;17.30;99.90;;;;;;4996771;28;20540;-88
2021/07/15 06:35:00;;;;;;;22.52;9.80;;;17.30;99.90;;;;;;4995595;28;20137;-89
2021/07/15 06:37:32;;;;;;;16.00;9.20;;;17.30;99.90;;;;;;4993887;28;20054;-88
2021/07/15 06:40:00;;;;;;;12.52;7.82;;;17.30;99.90;;;;;;4993316;28;20506;-89
2021/07/15 06:42:27;;;;;;;12.45;6.40;;;17.50;99.90;;;;;;4993008;28;20402;-88
2021/07/15 06:44:54;;;;;;;7.80;3.28;;;17.90;99.90;;;;;;4993566;28;20490;-89
2021/07/15 06:47:20;;;;;;;9.48;2.65;;;18.20;99.90;;;;;;4993546;28;20050;-88
2021/07/15 06:49:47;;;;;;;9.38;5.72;;;18.60;99.90;;;;;;4993502;28;20054;-89
2021/07/15 06:52:14;;;;;;;28.92;16.73;;;18.90;99.90;;;;;;4993637;28;20137;-88
2021/07/15 06:54:41;;;;;;;15.80;7.78;;;19.10;99.90;;;;;;4993225;28;20149;-88
2021/07/15 06:57:07;;;;;;;5.10;2.20;;;19.60;99.90;;;;;;4993529;28;20483;-88
2021/07/15 06:59:34;;;;;;;6.43;2.88;;;20.20;99.90;;;;;;4993175;28;20502;-88
2021/07/15 07:02:01;;;;;;;3.58;2.65;;;20.60;99.90;;;;;;4993106;28;20407;-89
2021/07/15 07:04:28;;;;;;;11.80;5.38;;;20.90;99.90;;;;;;4993293;28;20112;-88
2021/07/15 07:06:55;;;;;;;13.90;5.25;;;21.20;99.90;;;;;;4993260;28;20054;-89
2021/07/15 07:09:21;;;;;;;8.90;4.40;;;21.30;99.90;;;;;;4993247;28;20050;-88
2021/07/15 07:11:48;;;;;;;5.18;2.63;;;21.70;99.90;;;;;;4993067;28;20479;-89
2021/07/15 07:14:15;;;;;;;6.70;1.95;;;21.90;99.90;;;;;;4993046;28;20057;-89
2021/07/15 07:16:41;;;;;;;4.47;2.63;;;21.90;99.90;;;;;;4993082;28;20149;-88
2021/07/15 07:19:08;;;;;;;2.53;2.33;;;21.50;99.90;;;;;;4993353;28;20491;-88
2021/07/15 07:21:35;;;;;;;3.65;2.33;;;21.10;99.90;;;;;;4993161;28;20072;-89
2021/07/15 07:24:02;;;;;;;3.30;2.00;;;20.80;99.90;;;;;;4993331;28;20054;-91
2021/07/15 07:26:29;;;;;;;5.57;2.40;;;21.00;99.90;;;;;;4993079;28;20137;-88
2021/07/15 07:28:56;;;;;;;6.70;2.08;;;21.30;99.90;;;;;;4996333;28;20496;-88
2021/07/15 07:31:22;;;;;;;2.00;1.77;;;22.10;99.90;;;;;;4997237;28;20053;-88
2021/07/15 07:33:49;;;;;;;2.67;1.50;;;23.00;99.90;;;;;;4996964;28;20491;-88
2021/07/15 07:36:15;;;;;;;5.68;2.58;;;22.90;99.90;;;;;;4996536;28;20536;-88
2021/07/15 07:38:42;;;;;;;5.68;2.00;;;23.30;99.90;;;;;;4996993;28;20073;-88
2021/07/15 07:41:09;;;;;;;2.97;1.42;;;23.50;99.90;;;;;;4996979;28;20141;-89
2021/07/15 07:43:37;;;;;;;4.22;1.50;;;23.60;99.90;;;;;;4996715;28;20050;-88
2021/07/15 07:46:04;;;;;;;4.22;1.60;;;23.60;99.90;;;;;;4996731;28;20042;-89
2021/07/15 07:48:34;;;;;;;2.65;1.90;;;23.50;99.90;;;;;;4996745;28;20054;-88
2021/07/15 07:51:02;;;;;;;2.40;1.70;;;23.00;99.90;;;;;;4996817;28;20131;-89
2021/07/15 07:53:29;;;;;;;3.65;1.70;;;23.10;99.90;;;;;;4996646;28;20460;-89
2021/07/15 07:55:56;;;;;;;2.45;1.65;;;22.90;99.90;;;;;;4996046;28;20057;-89
2021/07/15 07:58:24;;;;;;;4.18;1.60;;;22.70;99.90;;;;;;4996524;28;20046;-90
2021/07/15 08:00:51;;;;;;;2.92;1.42;;;22.40;99.90;;;;;;4996825;28;20469;-89
2021/07/15 08:03:18;;;;;;;2.22;1.40;;;22.30;99.90;;;;;;4996654;28;20046;-89
2021/07/15 08:05:47;;;;;;;1.55;1.10;;;22.40;99.90;;;;;;4996308;28;20491;-89
2021/07/15 08:08:17;;;;;;;2.22;0.90;;;22.40;99.90;;;;;;4996327;28;20052;-89
2021/07/15 08:10:44;;;;;;;3.35;1.15;;;22.30;99.90;;;;;;4996259;28;20497;-88
2021/07/15 08:13:11;;;;;;;2.08;1.30;;;21.90;99.90;;;;;;4996098;28;20050;-89
2021/07/15 08:15:38;;;;;;;1.10;1.10;;;21.90;99.90;;;;;;4996064;28;20469;-87
2021/07/15 08:18:06;;;;;;;2.75;1.25;;;21.80;99.90;;;;;;4996154;28;20097;-87
2021/07/15 08:20:33;;;;;;;1.27;1.20;;;21.70;99.90;;;;;;4996074;28;20113;-89
2021/07/15 08:23:00;;;;;;;1.23;1.10;;;21.60;99.90;;;;;;4996250;28;20062;-89
2021/07/15 08:25:27;;;;;;;2.45;1.20;;;21.50;99.90;;;;;;4995870;28;20061;-88
2021/07/15 08:27:54;;;;;;;2.90;1.13;;;21.60;99.90;;;;;;4996168;28;20046;-89
2021/07/15 08:30:21;;;;;;;0.90;0.90;;;21.80;99.90;;;;;;4995838;28;20054;-89
2021/07/15 08:32:48;;;;;;;1.00;0.90;;;22.20;99.90;;;;;;4996136;28;20137;-89
2021/07/15 08:35:25;;;;;;;1.13;1.02;;;22.60;99.90;;;;;;4995479;28;20073;-89
2021/07/15 08:37:52;;;;;;;1.55;0.70;;;23.00;99.90;;;;;;4995880;28;20129;-88
2021/07/15 08:40:19;;;;;;;0.70;0.70;;;23.70;99.90;;;;;;4996625;28;20050;-89
2021/07/15 08:42:46;;;;;;;0.50;0.50;;;23.80;99.90;;;;;;4996990;28;20050;-89
2021/07/15 08:45:13;;;;;;;0.55;0.55;;;23.90;99.90;;;;;;4995503;28;20104;-89
2021/07/15 08:47:42;;;;;;;2.25;0.82;;;24.00;99.90;;;;;;4995671;28;20043;-90
2021/07/15 08:50:12;;;;;;;1.50;0.80;;;24.10;99.90;;;;;;4995625;28;20150;-90
2021/07/15 08:52:39;;;;;;;3.70;1.00;;;24.50;99.90;;;;;;4995469;28;20521;-89
2021/07/15 08:57:43;;;;;;;2.03;0.60;;;24.80;99.90;;;;;;4996752;28;20051;-90
2021/07/15 09:00:13;;;;;;;1.40;0.80;;;24.40;99.90;;;;;;4995543;28;20058;-93
2021/07/15 09:02:40;;;;;;;2.58;1.10;;;23.90;99.90;;;;;;4995563;28;20406;-88
2021/07/15 09:05:12;;;;;;;0.95;0.70;;;23.80;99.90;;;;;;4995400;28;20058;-90
2021/07/15 09:07:41;;;;;;;2.50;0.93;;;23.40;99.90;;;;;;4995328;28;20061;-88
2021/07/15 09:10:09;;;;;;;3.40;1.20;;;23.40;99.90;;;;;;4995316;28;20562;-89
2021/07/15 09:12:36;;;;;;;3.63;1.25;;;23.20;99.90;;;;;;4994971;28;20054;-91
2021/07/15 09:15:11;;;;;;;2.63;1.15;;;23.60;99.90;;;;;;4995041;28;20079;-89
2021/07/15 09:17:38;;;;;;;3.17;1.20;;;23.70;99.90;;;;;;4979320;28;20468;-91
2021/07/15 09:20:27;;;;;;;1.30;1.20;;;24.10;99.90;;;;;;4995052;28;20050;-89
2021/07/15 09:23:02;;;;;;;1.52;1.25;;;24.20;99.90;;;;;;4995029;28;20051;-90
2021/07/15 09:25:53;;;;;;;1.65;0.82;;;23.80;99.90;;;;;;4994910;28;20066;-89
2021/07/15 09:28:27;;;;;;;1.30;0.93;;;23.70;99.90;;;;;;4994996;28;20054;-89
2021/07/15 09:30:53;;;;;;;1.05;0.70;;;23.70;99.90;;;;;;4995012;28;20085;-90
2021/07/15 09:33:24;;;;;;;1.17;0.90;;;24.00;99.90;;;;;;4995099;28;20054;-88
2021/07/15 09:35:51;;;;;;;0.65;0.65;;;23.70;99.90;;;;;;4994508;28;20058;-89
2021/07/15 09:38:25;;;;;;;2.38;0.93;;;23.80;99.90;;;;;;4994621;28;20046;-89
2021/07/15 09:40:52;;;;;;;0.98;0.93;;;24.10;99.90;;;;;;4994653;28;20145;-88
2021/07/15 09:43:23;;;;;;;1.85;1.00;;;24.00;99.90;;;;;;4995847;28;20042;-88
2021/07/15 09:45:55;;;;;;;5.35;0.98;;;24.20;99.90;;;;;;4994240;28;20054;-89
2021/07/15 09:48:24;;;;;;;0.80;0.80;;;24.20;99.90;;;;;;4995437;28;20125;-89
2021/07/15 09:50:54;;;;;;;2.10;0.80;;;24.40;99.90;;;;;;4993709;28;20145;-88
2021/07/15 09:53:29;;;;;;;2.92;0.95;;;24.40;99.90;;;;;;4995630;28;20051;-89
2021/07/15 09:56:06;;;;;;;1.75;1.13;;;24.40;99.90;;;;;;4994025;28;20081;-90
2021/07/15 09:58:47;;;;;;;2.72;1.30;;;23.70;99.90;;;;;;4995128;28;20061;-95
2021/07/15 10:01:22;;;;;;;2.42;1.00;;;23.00;99.90;;;;;;4994397;28;20050;-90
2021/07/15 10:03:52;;;;;;;2.40;1.13;;;22.70;99.90;;;;;;4995113;28;20533;-90
2021/07/15 10:06:19;;;;;;;1.40;1.10;;;22.80;99.90;;;;;;4993971;28;20053;-92
2021/07/15 10:08:53;;;;;;;0.77;0.77;;;22.90;99.90;;;;;;4994290;28;20514;-89
2021/07/15 10:11:29;;;;;;;1.65;0.90;;;23.10;99.90;;;;;;4994022;28;20069;-91
2021/07/15 10:14:08;;;;;;;1.02;0.90;;;22.90;99.90;;;;;;4994549;28;20077;-89
2021/07/15 10:16:42;;;;;;;0.95;0.95;;;23.10;99.90;;;;;;4998199;28;20077;-90
2021/07/15 10:19:21;;;;;;;1.58;0.80;;;23.40;99.90;;;;;;4994110;28;20057;-91
2021/07/15 10:22:02;;;;;;;1.25;1.20;;;23.40;99.90;;;;;;4993917;28;20056;-91
2021/07/15 10:24:30;;;;;;;1.00;1.00;;;23.50;99.90;;;;;;4994788;28;20057;-90
2021/07/15 10:27:05;;;;;;;3.00;1.33;;;23.30;99.90;;;;;;4994758;28;20046;-90
2021/07/15 10:29:33;;;;;;;1.50;1.40;;;23.40;99.90;;;;;;4993735;28;20089;-90
2021/07/15 10:32:00;;;;;;;1.58;1.48;;;23.30;99.90;;;;;;4993543;28;20052;-91
2021/07/15 10:34:28;;;;;;;1.30;1.30;;;23.30;99.90;;;;;;4994994;28;20590;-90
2021/07/15 10:36:58;;;;;;;2.80;1.40;;;22.50;99.90;;;;;;4993554;28;20050;-92
2021/07/15 10:39:28;;;;;;;2.63;2.00;;;22.10;99.90;;;;;;4993682;28;20053;-95
2021/07/15 10:41:57;;;;;;;1.60;1.50;;;21.50;99.90;;;;;;4994823;28;20133;-92
2021/07/15 10:44:28;;;;;;;1.80;1.70;;;21.00;99.90;;;;;;4994556;28;20072;-93
2021/07/15 10:46:57;;;;;;;2.03;1.55;;;20.70;99.90;;;;;;4993947;28;20133;-92
2021/07/15 10:49:24;;;;;;;2.83;2.00;;;20.40;99.90;;;;;;4993465;28;20146;-90
2021/07/15 10:51:54;;;;;;;1.88;1.80;;;20.20;99.90;;;;;;4993390;28;20392;-92
2021/07/15 10:54:21;;;;;;;3.22;1.88;;;20.00;99.90;;;;;;4993467;28;20133;-91
2021/07/15 10:56:51;;;;;;;2.13;2.03;;;20.00;99.90;;;;;;4992801;28;20547;-90
2021/07/15 10:59:25;;;;;;;2.53;1.77;;;20.00;99.90;;;;;;4993418;28;20054;-89
2021/07/15 11:01:53;;;;;;;2.07;1.97;;;19.90;99.90;;;;;;4993196;28;20058;-88
2021/07/15 11:04:39;;;;;;;3.33;2.30;;;19.90;99.90;;;;;;4993645;28;20356;-87
2021/07/15 11:07:30;;;;;;;2.08;1.60;;;19.90;99.90;;;;;;4993057;28;20121;-89
2021/07/15 11:10:16;;;;;;;1.70;1.60;;;19.70;99.90;;;;;;4993172;28;20057;-86
2021/07/15 11:13:05;;;;;;;1.52;1.30;;;19.70;99.90;;;;;;4993265;28;20503;-89
2021/07/15 11:15:57;;;;;;;1.63;1.45;;;19.80;99.90;;;;;;4992707;28;20050;-88
2021/07/15 11:21:27;;;;;;;1.67;1.58;;;19.90;99.90;;;;;;4994025;28;20050;-88
2021/07/15 11:24:14;;;;;;;1.63;1.52;;;20.00;99.90;;;;;;4992804;28;20050;-87
2021/07/15 11:26:41;;;;;;;1.52;1.42;;;19.90;99.90;;;;;;4992523;28;20137;-88
2021/07/15 11:29:11;;;;;;;1.95;1.80;;;19.90;99.90;;;;;;4992892;28;20046;-88
2021/07/15 11:31:42;;;;;;;1.77;1.67;;;20.00;99.90;;;;;;4992763;28;20093;-88
2021/07/15 11:34:11;;;;;;;2.10;1.90;;;20.00;99.90;;;;;;4993796;28;20050;-88
2021/07/15 11:36:38;;;;;;;2.22;2.13;;;20.10;99.90;;;;;;4993438;28;20050;-88
2021/07/15 11:39:07;;;;;;;2.88;2.00;;;20.20;99.90;;;;;;4993885;28;20057;-89
2021/07/15 11:41:45;;;;;;;2.42;1.70;;;20.40;99.90;;;;;;4992859;28;20078;-88
2021/07/15 11:44:16;;;;;;;2.33;2.15;;;20.40;99.90;;;;;;4993140;28;20060;-88
2021/07/15 11:46:45;;;;;;;2.30;2.10;;;20.40;99.90;;;;;;4992464;28;20050;-92
2021/07/15 11:49:26;;;;;;;2.50;2.30;;;20.60;99.90;;;;;;4992940;28;20133;-92
2021/07/15 11:51:52;;;;;;;1.52;1.52;;;20.70;99.90;;;;;;4993205;28;20134;-90
2021/07/15 11:54:33;;;;;;;2.60;1.88;;;20.80;99.90;;;;;;4992320;28;20106;-90
2021/07/15 11:57:12;;;;;;;1.85;1.77;;;20.90;99.90;;;;;;4992066;28;20179;-90
2021/07/15 11:59:42;;;;;;;1.98;1.88;;;21.20;99.90;;;;;;4992805;28;20053;-89
2021/07/15 12:02:26;;;;;;;1.70;1.60;;;21.40;99.90;;;;;;4992164;28;20133;-89
2021/07/15 12:05:03;;;;;;;1.75;1.67;;;21.60;99.90;;;;;;4992543;28;20058;-89
2021/07/15 12:07:30;;;;;;;1.92;1.75;;;21.80;99.90;;;;;;4992491;28;20141;-89
2021/07/15 12:09:58;;;;;;;2.08;1.80;;;21.90;99.90;;;;;;4992674;28;20046;-90
2021/07/15 12:12:25;;;;;;;1.30;1.30;;;22.10;99.90;;;;;;4992440;28;20133;-89
2021/07/15 12:14:52;;;;;;;4.03;1.52;;;22.00;99.90;;;;;;4995341;28;20050;-90
2021/07/15 12:17:20;;;;;;;1.40;1.13;;;22.10;99.90;;;;;;4996317;28;20058;-89
2021/07/15 12:19:59;;;;;;;1.40;1.40;;;22.20;99.90;;;;;;4996033;28;20046;-90
2021/07/15 12:22:27;;;;;;;2.13;1.13;;;22.50;99.90;;;;;;4996188;28;20133;-89
2021/07/15 12:25:18;;;;;;;4.88;1.25;;;22.80;99.90;;;;;;4996233;28;20110;-89
2021/07/15 12:27:49;;;;;;;3.55;1.20;;;22.90;99.90;;;;;;4996060;28;20141;-89
2021/07/15 12:30:17;;;;;;;1.95;1.08;;;23.00;99.90;;;;;;4996253;28;20057;-90
2021/07/15 12:33:00;;;;;;;2.75;1.23;;;23.30;99.90;;;;;;4996115;28;20068;-90
2021/07/15 12:35:31;;;;;;;1.20;1.10;;;23.40;99.90;;;;;;4996122;28;20406;-92
2021/07/15 12:37:58;;;;;;;5.38;1.88;;;23.00;99.90;;;;;;4998202;28;20050;-90
2021/07/15 12:40:28;;;;;;;2.65;1.17;;;22.40;99.90;;;;;;4996810;28;20089;-91
2021/07/15 12:43:27;;;;;;;2.17;0.95;;;22.20;99.90;;;;;;4996256;28;20064;-92
2021/07/15 12:45:54;;;;;;;2.42;0.90;;;21.90;99.90;;;;;;4996224;28;20428;-91
2021/07/15 12:48:22;;;;;;;7.78;1.55;;;22.10;99.90;;;;;;4996016;28;20495;-91
2021/07/15 12:50:51;;;;;;;1.10;0.60;;;22.40;99.90;;;;;;4995823;28;20525;-91
2021/07/15 12:53:31;;;;;;;1.17;0.73;;;22.80;99.90;;;;;;4995799;28;20054;-91
2021/07/15 12:55:59;;;;;;;0.95;0.65;;;23.50;99.90;;;;;;4995379;28;20517;-91
2021/07/15 12:58:27;;;;;;;0.70;0.70;;;23.70;99.90;;;;;;4995603;28;20042;-92
2021/07/15 13:01:04;;;;;;;0.40;0.40;;;23.30;99.90;;;;;;4995772;28;20140;-91
2021/07/15 13:03:32;;;;;;;0.70;0.70;;;22.70;99.90;;;;;;4995455;28;20498;-92
2021/07/15 13:06:00;;;;;;;0.90;0.90;;;22.50;99.90;;;;;;4995384;28;20074;-91
2021/07/15 13:08:53;;;;;;;1.20;0.65;;;22.20;99.90;;;;;;4995533;28;20049;-92